sensor_id;sensor_type;location;lat;lon;timestamp;pressure;altitude;pressure_sealevel;temperature;humidity
37078;BME280;22989;55.998;37.212;2023-02-19T00:01:22;-11298.94;;;-145.39;58.53
37078;BME280;22989;55.998;37.212;2023-02-19T00:03:57;-11298.94;;;-145.39;58.90
37078;BME280;22989;55.998;37.212;2023-02-19T00:06:24;-11298.94;;;-145.39;58.75
37078;BME280;22989;55.998;37.212;2023-02-19T00:08:50;-11298.94;;;-145.39;58.63
37078;BME280;22989;55.998;37.212;2023-02-19T00:11:21;-11298.94;;;-145.39;58.92
37078;BME280;22989;55.998;37.212;2023-02-19T00:13:49;-11298.94;;;-145.39;58.71
37078;BME280;22989;55.998;37.212;2023-02-19T00:16:23;-11298.94;;;-145.39;58.58
37078;BME280;22989;55.998;37.212;2023-02-19T00:18:50;-11298.94;;;-145.39;58.29
37078;BME280;22989;55.998;37.212;2023-02-19T00:21:16;-11298.94;;;-145.39;58.63
37078;BME280;22989;55.998;37.212;2023-02-19T00:23:42;-11298.94;;;-145.39;58.67
37078;BME280;22989;55.998;37.212;2023-02-19T00:26:11;-11298.94;;;-145.39;58.42
37078;BME280;22989;55.998;37.212;2023-02-19T00:28:39;-11298.94;;;-145.39;58.61
37078;BME280;22989;55.998;37.212;2023-02-19T00:31:15;-11298.94;;;-145.39;58.24
37078;BME280;22989;55.998;37.212;2023-02-19T00:33:42;-11298.94;;;-145.39;58.25
37078;BME280;22989;55.998;37.212;2023-02-19T00:36:07;-11298.94;;;-145.39;58.55
37078;BME280;22989;55.998;37.212;2023-02-19T00:38:37;-11298.94;;;-145.39;58.53
37078;BME280;22989;55.998;37.212;2023-02-19T00:41:03;-11298.94;;;-145.39;58.48
37078;BME280;22989;55.998;37.212;2023-02-19T00:43:48;-11298.94;;;-145.39;58.46
37078;BME280;22989;55.998;37.212;2023-02-19T00:46:22;-11298.94;;;-145.39;58.45
37078;BME280;22989;55.998;37.212;2023-02-19T00:48:48;-11298.94;;;-145.39;58.68
37078;BME280;22989;55.998;37.212;2023-02-19T00:51:15;-11298.94;;;-145.39;58.43
37078;BME280;22989;55.998;37.212;2023-02-19T00:53:41;-11298.94;;;-145.39;58.47
37078;BME280;22989;55.998;37.212;2023-02-19T00:56:07;-11298.94;;;-145.39;58.85
37078;BME280;22989;55.998;37.212;2023-02-19T00:58:33;-11298.94;;;-145.39;58.47
37078;BME280;22989;55.998;37.212;2023-02-19T01:00:59;-11298.94;;;-145.39;58.50
37078;BME280;22989;55.998;37.212;2023-02-19T01:03:25;-11298.94;;;-145.39;58.72
37078;BME280;22989;55.998;37.212;2023-02-19T01:05:51;-11298.94;;;-145.39;59.05
37078;BME280;22989;55.998;37.212;2023-02-19T01:08:18;-11298.94;;;-145.39;58.82
37078;BME280;22989;55.998;37.212;2023-02-19T01:10:43;-11298.94;;;-145.39;58.76
37078;BME280;22989;55.998;37.212;2023-02-19T01:13:09;-11298.94;;;-145.39;58.51
37078;BME280;22989;55.998;37.212;2023-02-19T01:15:35;-11298.94;;;-145.39;58.58
37078;BME280;22989;55.998;37.212;2023-02-19T01:18:02;-11298.94;;;-145.39;58.67
37078;BME280;22989;55.998;37.212;2023-02-19T01:20:27;-11298.94;;;-145.39;58.33
37078;BME280;22989;55.998;37.212;2023-02-19T01:22:53;-11298.94;;;-145.39;58.24
37078;BME280;22989;55.998;37.212;2023-02-19T01:25:19;-11298.94;;;-145.39;58.63
37078;BME280;22989;55.998;37.212;2023-02-19T01:27:44;-11298.94;;;-145.39;58.33
37078;BME280;22989;55.998;37.212;2023-02-19T01:30:11;-11298.94;;;-145.39;58.38
37078;BME280;22989;55.998;37.212;2023-02-19T01:32:37;-11298.94;;;-145.39;58.41
37078;BME280;22989;55.998;37.212;2023-02-19T01:35:03;-11298.94;;;-145.39;58.67
37078;BME280;22989;55.998;37.212;2023-02-19T01:37:29;-11298.94;;;-145.39;58.67
37078;BME280;22989;55.998;37.212;2023-02-19T01:39:55;-11298.94;;;-145.39;58.55
37078;BME280;22989;55.998;37.212;2023-02-19T01:42:21;-11298.94;;;-145.39;58.93
37078;BME280;22989;55.998;37.212;2023-02-19T01:47:14;-11298.94;;;-145.39;58.52
37078;BME280;22989;55.998;37.212;2023-02-19T01:49:47;-11298.94;;;-145.39;58.36
37078;BME280;22989;55.998;37.212;2023-02-19T01:52:27;-11298.94;;;-145.39;58.38
37078;BME280;22989;55.998;37.212;2023-02-19T01:54:55;-11298.94;;;-145.39;58.65
37078;BME280;22989;55.998;37.212;2023-02-19T01:57:25;-11298.94;;;-145.39;58.21
37078;BME280;22989;55.998;37.212;2023-02-19T01:59:54;-11298.94;;;-145.39;58.04
37078;BME280;22989;55.998;37.212;2023-02-19T02:02:21;-11298.94;;;-145.39;58.05
37078;BME280;22989;55.998;37.212;2023-02-19T02:04:50;-11298.94;;;-145.39;58.39
37078;BME280;22989;55.998;37.212;2023-02-19T02:07:16;-11298.94;;;-145.39;58.67
37078;BME280;22989;55.998;37.212;2023-02-19T02:10:01;-11298.94;;;-145.39;58.57
37078;BME280;22989;55.998;37.212;2023-02-19T02:12:49;-11298.94;;;-145.39;58.75
37078;BME280;22989;55.998;37.212;2023-02-19T02:15:16;-11298.94;;;-145.39;58.48
37078;BME280;22989;55.998;37.212;2023-02-19T02:17:51;-11298.94;;;-145.39;58.24
37078;BME280;22989;55.998;37.212;2023-02-19T02:20:25;-11298.94;;;-145.39;58.60
37078;BME280;22989;55.998;37.212;2023-02-19T02:22:54;-11298.94;;;-145.39;58.46
37078;BME280;22989;55.998;37.212;2023-02-19T02:31:34;-11298.94;;;-145.39;58.71
37078;BME280;22989;55.998;37.212;2023-02-19T02:34:15;-11298.94;;;-145.39;58.53
37078;BME280;22989;55.998;37.212;2023-02-19T02:36:45;-11298.94;;;-145.39;58.45
37078;BME280;22989;55.998;37.212;2023-02-19T02:39:16;-11298.94;;;-145.39;58.60
37078;BME280;22989;55.998;37.212;2023-02-19T02:41:49;-11298.94;;;-145.39;58.64
37078;BME280;22989;55.998;37.212;2023-02-19T02:44:36;-11298.94;;;-145.39;59.15
37078;BME280;22989;55.998;37.212;2023-02-19T02:47:05;-11298.94;;;-145.39;58.89
37078;BME280;22989;55.998;37.212;2023-02-19T02:49:33;-11298.94;;;-145.39;59.07
37078;BME280;22989;55.998;37.212;2023-02-19T02:52:19;-11298.94;;;-145.39;58.84
37078;BME280;22989;55.998;37.212;2023-02-19T02:55:08;-11298.94;;;-145.39;59.01
37078;BME280;22989;55.998;37.212;2023-02-19T02:57:35;-11298.94;;;-145.39;58.87
37078;BME280;22989;55.998;37.212;2023-02-19T03:00:01;-11298.94;;;-145.39;58.99
37078;BME280;22989;55.998;37.212;2023-02-19T03:02:28;-11298.94;;;-145.39;58.99
37078;BME280;22989;55.998;37.212;2023-02-19T03:05:15;-11298.94;;;-145.39;58.88
37078;BME280;22989;55.998;37.212;2023-02-19T03:08:06;-11298.94;;;-145.39;58.53
37078;BME280;22989;55.998;37.212;2023-02-19T03:10:45;-11298.94;;;-145.39;58.55
37078;BME280;22989;55.998;37.212;2023-02-19T03:13:24;-11298.94;;;-145.39;58.84
37078;BME280;22989;55.998;37.212;2023-02-19T03:16:17;-11298.94;;;-145.39;58.75
37078;BME280;22989;55.998;37.212;2023-02-19T03:19:04;-11298.94;;;-145.39;58.58
37078;BME280;22989;55.998;37.212;2023-02-19T03:21:55;-11298.94;;;-145.39;58.50
37078;BME280;22989;55.998;37.212;2023-02-19T03:24:28;-11298.94;;;-145.39;58.63
37078;BME280;22989;55.998;37.212;2023-02-19T03:27:14;-11298.94;;;-145.39;58.43
37078;BME280;22989;55.998;37.212;2023-02-19T03:29:46;-11298.94;;;-145.39;58.75
37078;BME280;22989;55.998;37.212;2023-02-19T03:32:17;-11298.94;;;-145.39;58.87
37078;BME280;22989;55.998;37.212;2023-02-19T03:34:53;-11298.94;;;-145.39;59.20
37078;BME280;22989;55.998;37.212;2023-02-19T03:37:29;-11298.94;;;-145.39;58.33
37078;BME280;22989;55.998;37.212;2023-02-19T03:39:58;-11298.94;;;-145.39;58.60
37078;BME280;22989;55.998;37.212;2023-02-19T03:42:52;-11298.94;;;-145.39;58.77
37078;BME280;22989;55.998;37.212;2023-02-19T03:50:44;-11298.94;;;-145.39;58.87
37078;BME280;22989;55.998;37.212;2023-02-19T03:53:46;-11298.94;;;-145.39;59.11
37078;BME280;22989;55.998;37.212;2023-02-19T03:56:15;-11298.94;;;-145.39;59.32
37078;BME280;22989;55.998;37.212;2023-02-19T03:58:51;-11298.94;;;-145.39;58.96
37078;BME280;22989;55.998;37.212;2023-02-19T04:01:30;-11298.94;;;-145.39;59.17
37078;BME280;22989;55.998;37.212;2023-02-19T04:04:31;-11298.94;;;-145.39;59.37
37078;BME280;22989;55.998;37.212;2023-02-19T04:06:58;-11298.94;;;-145.39;59.33
37078;BME280;22989;55.998;37.212;2023-02-19T04:09:30;-11298.94;;;-145.39;59.57
37078;BME280;22989;55.998;37.212;2023-02-19T04:12:04;-11298.94;;;-145.39;59.67
37078;BME280;22989;55.998;37.212;2023-02-19T04:17:09;-11298.94;;;-145.39;59.80
37078;BME280;22989;55.998;37.212;2023-02-19T04:19:39;-11298.94;;;-145.39;59.49
37078;BME280;22989;55.998;37.212;2023-02-19T04:22:07;-11298.94;;;-145.39;59.79
37078;BME280;22989;55.998;37.212;2023-02-19T04:24:42;-11298.94;;;-145.39;59.52
37078;BME280;22989;55.998;37.212;2023-02-19T04:27:10;-11298.94;;;-145.39;59.80
37078;BME280;22989;55.998;37.212;2023-02-19T04:29:36;-11298.94;;;-145.39;59.47
37078;BME280;22989;55.998;37.212;2023-02-19T04:32:02;-11298.94;;;-145.39;59.60
37078;BME280;22989;55.998;37.212;2023-02-19T04:34:27;-11298.94;;;-145.39;60.11
37078;BME280;22989;55.998;37.212;2023-02-19T04:36:53;-11298.94;;;-145.39;60.42
37078;BME280;22989;55.998;37.212;2023-02-19T04:39:18;-11298.94;;;-145.39;60.38
37078;BME280;22989;55.998;37.212;2023-02-19T04:41:44;-11298.94;;;-145.39;60.11
37078;BME280;22989;55.998;37.212;2023-02-19T04:44:10;-11298.94;;;-145.39;60.27
37078;BME280;22989;55.998;37.212;2023-02-19T04:46:35;-11298.94;;;-145.39;60.37
37078;BME280;22989;55.998;37.212;2023-02-19T04:49:01;-11298.94;;;-145.39;60.23
37078;BME280;22989;55.998;37.212;2023-02-19T04:51:26;-11298.94;;;-145.39;60.47
37078;BME280;22989;55.998;37.212;2023-02-19T04:53:52;-11298.94;;;-145.39;60.13
37078;BME280;22989;55.998;37.212;2023-02-19T04:56:18;-11298.94;;;-145.39;60.20
37078;BME280;22989;55.998;37.212;2023-02-19T04:58:43;-11298.94;;;-145.39;60.31
37078;BME280;22989;55.998;37.212;2023-02-19T05:01:10;-11298.94;;;-145.39;60.44
37078;BME280;22989;55.998;37.212;2023-02-19T05:03:36;-11298.94;;;-145.39;60.68
37078;BME280;22989;55.998;37.212;2023-02-19T05:06:06;-11298.94;;;-145.39;60.74
37078;BME280;22989;55.998;37.212;2023-02-19T05:08:32;-11298.94;;;-145.39;60.61
37078;BME280;22989;55.998;37.212;2023-02-19T05:10:59;-11298.94;;;-145.39;60.47
37078;BME280;22989;55.998;37.212;2023-02-19T05:13:26;-11298.94;;;-145.39;61.08
37078;BME280;22989;55.998;37.212;2023-02-19T05:16:00;-11298.94;;;-145.39;60.44
37078;BME280;22989;55.998;37.212;2023-02-19T05:18:26;-11298.94;;;-145.39;60.30
37078;BME280;22989;55.998;37.212;2023-02-19T05:20:52;-11298.94;;;-145.39;60.81
37078;BME280;22989;55.998;37.212;2023-02-19T05:23:19;-11298.94;;;-145.39;60.40
37078;BME280;22989;55.998;37.212;2023-02-19T05:25:45;-11298.94;;;-145.39;60.67
37078;BME280;22989;55.998;37.212;2023-02-19T05:28:11;-11298.94;;;-145.39;60.78
37078;BME280;22989;55.998;37.212;2023-02-19T05:30:48;-11298.94;;;-145.39;60.78
37078;BME280;22989;55.998;37.212;2023-02-19T05:33:14;-11298.94;;;-145.39;60.40
37078;BME280;22989;55.998;37.212;2023-02-19T05:35:46;-11298.94;;;-145.39;60.59
37078;BME280;22989;55.998;37.212;2023-02-19T05:38:12;-11298.94;;;-145.39;60.69
37078;BME280;22989;55.998;37.212;2023-02-19T05:40:38;-11298.94;;;-145.39;60.46
37078;BME280;22989;55.998;37.212;2023-02-19T05:43:05;-11298.94;;;-145.39;60.68
37078;BME280;22989;55.998;37.212;2023-02-19T05:45:31;-11298.94;;;-145.39;60.73
37078;BME280;22989;55.998;37.212;2023-02-19T05:47:57;-11298.94;;;-145.39;60.86
37078;BME280;22989;55.998;37.212;2023-02-19T05:50:23;-11298.94;;;-145.39;60.50
37078;BME280;22989;55.998;37.212;2023-02-19T05:52:48;-11298.94;;;-145.39;60.64
37078;BME280;22989;55.998;37.212;2023-02-19T05:55:14;-11298.94;;;-145.39;60.41
37078;BME280;22989;55.998;37.212;2023-02-19T05:57:45;-11298.94;;;-145.39;60.33
37078;BME280;22989;55.998;37.212;2023-02-19T06:00:13;-11298.94;;;-145.39;60.52
37078;BME280;22989;55.998;37.212;2023-02-19T06:02:39;-11298.94;;;-145.39;60.25
37078;BME280;22989;55.998;37.212;2023-02-19T06:05:05;-11298.94;;;-145.39;60.60
37078;BME280;22989;55.998;37.212;2023-02-19T06:07:31;-11298.94;;;-145.39;60.17
37078;BME280;22989;55.998;37.212;2023-02-19T06:09:57;-11298.94;;;-145.39;60.03
37078;BME280;22989;55.998;37.212;2023-02-19T06:12:23;-11298.94;;;-145.39;59.81
37078;BME280;22989;55.998;37.212;2023-02-19T06:14:49;-11298.94;;;-145.39;59.93
37078;BME280;22989;55.998;37.212;2023-02-19T06:17:15;-11298.94;;;-145.39;60.14
37078;BME280;22989;55.998;37.212;2023-02-19T06:19:40;-11298.94;;;-145.39;60.02
37078;BME280;22989;55.998;37.212;2023-02-19T06:22:06;-11298.94;;;-145.39;59.81
37078;BME280;22989;55.998;37.212;2023-02-19T06:24:32;-11298.94;;;-145.39;59.62
37078;BME280;22989;55.998;37.212;2023-02-19T06:26:58;-11298.94;;;-145.39;59.40
37078;BME280;22989;55.998;37.212;2023-02-19T06:29:24;-11298.94;;;-145.39;59.47
37078;BME280;22989;55.998;37.212;2023-02-19T06:31:49;-11298.94;;;-145.39;59.36
37078;BME280;22989;55.998;37.212;2023-02-19T06:34:15;-11298.94;;;-145.39;59.40
37078;BME280;22989;55.998;37.212;2023-02-19T06:36:41;-11298.94;;;-145.39;59.42
37078;BME280;22989;55.998;37.212;2023-02-19T06:39:07;-11298.94;;;-145.39;59.31
37078;BME280;22989;55.998;37.212;2023-02-19T06:41:32;-11298.94;;;-145.39;59.18
37078;BME280;22989;55.998;37.212;2023-02-19T06:43:58;-11298.94;;;-145.39;59.39
37078;BME280;22989;55.998;37.212;2023-02-19T06:46:24;-11298.94;;;-145.39;59.16
37078;BME280;22989;55.998;37.212;2023-02-19T06:48:50;-11298.94;;;-145.39;58.29
37078;BME280;22989;55.998;37.212;2023-02-19T06:51:17;-11298.94;;;-145.39;58.31
37078;BME280;22989;55.998;37.212;2023-02-19T06:53:46;-11298.94;;;-145.39;58.15
37078;BME280;22989;55.998;37.212;2023-02-19T06:56:22;-11298.94;;;-145.39;58.00
37078;BME280;22989;55.998;37.212;2023-02-19T06:58:49;-11298.94;;;-145.39;58.05
37078;BME280;22989;55.998;37.212;2023-02-19T07:01:15;-11298.94;;;-145.39;57.98
37078;BME280;22989;55.998;37.212;2023-02-19T07:03:41;-11298.94;;;-145.39;57.31
37078;BME280;22989;55.998;37.212;2023-02-19T07:06:07;-11298.94;;;-145.39;56.97
37078;BME280;22989;55.998;37.212;2023-02-19T07:08:32;-11298.94;;;-145.39;57.14
37078;BME280;22989;55.998;37.212;2023-02-19T07:10:58;-11298.94;;;-145.39;56.78
37078;BME280;22989;55.998;37.212;2023-02-19T07:13:24;-11298.94;;;-145.39;57.04
37078;BME280;22989;55.998;37.212;2023-02-19T07:15:54;-11298.94;;;-145.39;57.19
37078;BME280;22989;55.998;37.212;2023-02-19T07:18:22;-11298.94;;;-145.39;56.54
37078;BME280;22989;55.998;37.212;2023-02-19T07:20:47;-11298.94;;;-145.39;56.50
37078;BME280;22989;55.998;37.212;2023-02-19T07:23:13;-11298.94;;;-145.39;56.53
37078;BME280;22989;55.998;37.212;2023-02-19T07:25:38;-11298.94;;;-145.39;56.74
37078;BME280;22989;55.998;37.212;2023-02-19T07:28:05;-11298.94;;;-145.39;56.33
37078;BME280;22989;55.998;37.212;2023-02-19T07:30:31;-11298.94;;;-145.39;56.95
37078;BME280;22989;55.998;37.212;2023-02-19T07:32:56;-11298.94;;;-145.39;57.31
37078;BME280;22989;55.998;37.212;2023-02-19T07:35:22;-11298.94;;;-145.39;57.25
37078;BME280;22989;55.998;37.212;2023-02-19T07:37:48;-11298.94;;;-145.39;57.43
37078;BME280;22989;55.998;37.212;2023-02-19T07:40:13;-11298.94;;;-145.39;56.90
37078;BME280;22989;55.998;37.212;2023-02-19T07:42:39;-11298.94;;;-145.39;57.01
37078;BME280;22989;55.998;37.212;2023-02-19T07:45:05;-11298.94;;;-145.39;57.14
37078;BME280;22989;55.998;37.212;2023-02-19T07:47:30;-11298.94;;;-145.39;57.26
37078;BME280;22989;55.998;37.212;2023-02-19T07:49:56;-11298.94;;;-145.39;57.04
37078;BME280;22989;55.998;37.212;2023-02-19T07:52:22;-11298.94;;;-145.39;57.34
37078;BME280;22989;55.998;37.212;2023-02-19T07:54:48;-11298.94;;;-145.39;57.27
37078;BME280;22989;55.998;37.212;2023-02-19T07:57:13;-11298.94;;;-145.39;56.92
37078;BME280;22989;55.998;37.212;2023-02-19T07:59:39;-11298.94;;;-145.39;56.93
37078;BME280;22989;55.998;37.212;2023-02-19T08:02:15;-11298.94;;;-145.39;56.61
37078;BME280;22989;55.998;37.212;2023-02-19T08:05:00;-11298.94;;;-145.39;56.51
37078;BME280;22989;55.998;37.212;2023-02-19T08:07:35;-11298.94;;;-145.39;56.32
37078;BME280;22989;55.998;37.212;2023-02-19T08:10:02;-11298.94;;;-145.39;56.34
37078;BME280;22989;55.998;37.212;2023-02-19T08:12:59;-11298.94;;;-145.39;56.49
37078;BME280;22989;55.998;37.212;2023-02-19T08:18:13;-11298.94;;;-145.39;56.56
37078;BME280;22989;55.998;37.212;2023-02-19T08:20:39;-11298.94;;;-145.39;56.42
37078;BME280;22989;55.998;37.212;2023-02-19T08:23:05;-11298.94;;;-145.39;56.32
37078;BME280;22989;55.998;37.212;2023-02-19T08:25:32;-11298.94;;;-145.39;55.84
37078;BME280;22989;55.998;37.212;2023-02-19T08:27:57;-11298.94;;;-145.39;55.77
37078;BME280;22989;55.998;37.212;2023-02-19T08:30:26;-11298.94;;;-145.39;55.58
37078;BME280;22989;55.998;37.212;2023-02-19T08:32:52;-11298.94;;;-145.39;55.76
37078;BME280;22989;55.998;37.212;2023-02-19T08:35:17;-11298.94;;;-145.39;55.71
37078;BME280;22989;55.998;37.212;2023-02-19T08:37:43;-11298.94;;;-145.39;55.41
37078;BME280;22989;55.998;37.212;2023-02-19T08:40:09;-11298.94;;;-145.39;54.89
37078;BME280;22989;55.998;37.212;2023-02-19T08:42:35;-11298.94;;;-145.39;55.13
37078;BME280;22989;55.998;37.212;2023-02-19T08:45:01;-11298.94;;;-145.39;54.89
37078;BME280;22989;55.998;37.212;2023-02-19T08:47:26;-11298.94;;;-145.39;54.17
37078;BME280;22989;55.998;37.212;2023-02-19T08:49:52;-11298.94;;;-145.39;54.80
37078;BME280;22989;55.998;37.212;2023-02-19T08:52:17;-11298.94;;;-145.39;54.38
37078;BME280;22989;55.998;37.212;2023-02-19T08:54:43;-11298.94;;;-145.39;54.92
37078;BME280;22989;55.998;37.212;2023-02-19T08:57:08;-11298.94;;;-145.39;54.84
37078;BME280;22989;55.998;37.212;2023-02-19T08:59:34;-11298.94;;;-145.39;54.62
37078;BME280;22989;55.998;37.212;2023-02-19T09:02:00;-11298.94;;;-145.39;55.00
37078;BME280;22989;55.998;37.212;2023-02-19T09:04:25;-11298.94;;;-145.39;54.58
37078;BME280;22989;55.998;37.212;2023-02-19T09:06:51;-11298.94;;;-145.39;54.93
37078;BME280;22989;55.998;37.212;2023-02-19T09:09:17;-11298.94;;;-145.39;54.51
37078;BME280;22989;55.998;37.212;2023-02-19T09:11:42;-11298.94;;;-145.39;53.73
37078;BME280;22989;55.998;37.212;2023-02-19T09:14:08;-11298.94;;;-145.39;53.00
37078;BME280;22989;55.998;37.212;2023-02-19T09:16:34;-11298.94;;;-145.39;53.44
37078;BME280;22989;55.998;37.212;2023-02-19T09:19:00;-11298.94;;;-145.39;53.93
37078;BME280;22989;55.998;37.212;2023-02-19T09:21:25;-11298.94;;;-145.39;53.74
37078;BME280;22989;55.998;37.212;2023-02-19T09:23:51;-11298.94;;;-145.39;54.51
37078;BME280;22989;55.998;37.212;2023-02-19T09:26:17;-11298.94;;;-145.39;54.38
37078;BME280;22989;55.998;37.212;2023-02-19T09:28:42;-11298.94;;;-145.39;54.37
37078;BME280;22989;55.998;37.212;2023-02-19T09:31:10;-11298.94;;;-145.39;54.22
37078;BME280;22989;55.998;37.212;2023-02-19T09:33:37;-11298.94;;;-145.39;54.68
37078;BME280;22989;55.998;37.212;2023-02-19T09:36:03;-11298.94;;;-145.39;54.94
37078;BME280;22989;55.998;37.212;2023-02-19T09:38:29;-11298.94;;;-145.39;54.63
37078;BME280;22989;55.998;37.212;2023-02-19T09:40:58;-11298.94;;;-145.39;54.71
37078;BME280;22989;55.998;37.212;2023-02-19T09:43:30;-11298.94;;;-145.39;55.17
37078;BME280;22989;55.998;37.212;2023-02-19T09:49:06;-11298.94;;;-145.39;54.95
37078;BME280;22989;55.998;37.212;2023-02-19T09:51:36;-11298.94;;;-145.39;55.53
37078;BME280;22989;55.998;37.212;2023-02-19T09:54:06;-11298.94;;;-145.39;55.82
37078;BME280;22989;55.998;37.212;2023-02-19T09:56:34;-11298.94;;;-145.39;56.26
37078;BME280;22989;55.998;37.212;2023-02-19T09:59:00;-11298.94;;;-145.39;56.33
37078;BME280;22989;55.998;37.212;2023-02-19T10:01:30;-11298.94;;;-145.39;55.35
37078;BME280;22989;55.998;37.212;2023-02-19T10:03:57;-11298.94;;;-145.39;55.67
37078;BME280;22989;55.998;37.212;2023-02-19T10:06:25;-11298.94;;;-145.39;55.41
37078;BME280;22989;55.998;37.212;2023-02-19T10:08:55;-11298.94;;;-145.39;55.55
37078;BME280;22989;55.998;37.212;2023-02-19T10:11:24;-11298.94;;;-145.39;54.77
37078;BME280;22989;55.998;37.212;2023-02-19T10:14:03;-11298.94;;;-145.39;55.03
37078;BME280;22989;55.998;37.212;2023-02-19T10:16:34;-11298.94;;;-145.39;55.00
37078;BME280;22989;55.998;37.212;2023-02-19T10:19:02;-11298.94;;;-145.39;54.88
37078;BME280;22989;55.998;37.212;2023-02-19T10:21:29;-11298.94;;;-145.39;55.62
37078;BME280;22989;55.998;37.212;2023-02-19T10:23:59;-11298.94;;;-145.39;55.81
37078;BME280;22989;55.998;37.212;2023-02-19T10:26:26;-11298.94;;;-145.39;55.58
37078;BME280;22989;55.998;37.212;2023-02-19T10:28:52;-11298.94;;;-145.39;55.36
37078;BME280;22989;55.998;37.212;2023-02-19T10:31:24;-11298.94;;;-145.39;55.09
37078;BME280;22989;55.998;37.212;2023-02-19T10:33:54;-11298.94;;;-145.39;54.90
37078;BME280;22989;55.998;37.212;2023-02-19T10:38:49;-11298.94;;;-145.39;55.20
37078;BME280;22989;55.998;37.212;2023-02-19T10:41:17;-11298.94;;;-145.39;55.17
37078;BME280;22989;55.998;37.212;2023-02-19T10:43:53;-11298.94;;;-145.39;54.64
37078;BME280;22989;55.998;37.212;2023-02-19T10:46:25;-11298.94;;;-145.39;54.88
37078;BME280;22989;55.998;37.212;2023-02-19T10:49:04;-11298.94;;;-145.39;54.85
37078;BME280;22989;55.998;37.212;2023-02-19T10:51:36;-11298.94;;;-145.39;54.87
37078;BME280;22989;55.998;37.212;2023-02-19T10:54:24;-11298.94;;;-145.39;54.83
37078;BME280;22989;55.998;37.212;2023-02-19T10:56:51;-11298.94;;;-145.39;55.18
37078;BME280;22989;55.998;37.212;2023-02-19T11:01:59;-11298.94;;;-145.39;55.37
37078;BME280;22989;55.998;37.212;2023-02-19T11:04:29;-11298.94;;;-145.39;54.87
37078;BME280;22989;55.998;37.212;2023-02-19T11:07:13;-11298.94;;;-145.39;54.47
37078;BME280;22989;55.998;37.212;2023-02-19T11:09:45;-11298.94;;;-145.39;54.76
37078;BME280;22989;55.998;37.212;2023-02-19T11:12:22;-11298.94;;;-145.39;55.22
37078;BME280;22989;55.998;37.212;2023-02-19T11:14:49;-11298.94;;;-145.39;54.52
37078;BME280;22989;55.998;37.212;2023-02-19T11:17:26;-11298.94;;;-145.39;54.56
37078;BME280;22989;55.998;37.212;2023-02-19T11:19:57;-11298.94;;;-145.39;53.73
37078;BME280;22989;55.998;37.212;2023-02-19T11:22:38;-11298.94;;;-145.39;53.88
37078;BME280;22989;55.998;37.212;2023-02-19T11:27:31;-11298.94;;;-145.39;53.42
37078;BME280;22989;55.998;37.212;2023-02-19T11:30:21;-11298.94;;;-145.39;54.09
37078;BME280;22989;55.998;37.212;2023-02-19T11:32:52;-11298.94;;;-145.39;54.37
37078;BME280;22989;55.998;37.212;2023-02-19T11:35:21;-11298.94;;;-145.39;54.14
37078;BME280;22989;55.998;37.212;2023-02-19T11:37:59;-11298.94;;;-145.39;54.76
37078;BME280;22989;55.998;37.212;2023-02-19T11:43:26;-11298.94;;;-145.39;54.79
37078;BME280;22989;55.998;37.212;2023-02-19T11:46:06;-11298.94;;;-145.39;54.40
37078;BME280;22989;55.998;37.212;2023-02-19T11:51:54;-11298.94;;;-145.39;55.47
37078;BME280;22989;55.998;37.212;2023-02-19T11:54:49;-11298.94;;;-145.39;55.28
37078;BME280;22989;55.998;37.212;2023-02-19T12:00:26;-11298.94;;;-145.39;54.93
37078;BME280;22989;55.998;37.212;2023-02-19T12:05:48;-11298.94;;;-145.39;55.39
37078;BME280;22989;55.998;37.212;2023-02-19T12:24:25;-11298.94;;;-145.39;55.69
37078;BME280;22989;55.998;37.212;2023-02-19T12:27:25;-11298.94;;;-145.39;55.52
37078;BME280;22989;55.998;37.212;2023-02-19T12:35:54;-11298.94;;;-145.39;55.37
37078;BME280;22989;55.998;37.212;2023-02-19T12:43:39;-11298.94;;;-145.39;55.68
37078;BME280;22989;55.998;37.212;2023-02-19T12:46:42;-11298.94;;;-145.39;55.93
37078;BME280;22989;55.998;37.212;2023-02-19T12:49:13;-11298.94;;;-145.39;55.36
37078;BME280;22989;55.998;37.212;2023-02-19T12:51:44;-11298.94;;;-145.39;55.72
37078;BME280;22989;55.998;37.212;2023-02-19T12:54:25;-11298.94;;;-145.39;55.90
37078;BME280;22989;55.998;37.212;2023-02-19T12:56:54;-11298.94;;;-145.39;56.23
37078;BME280;22989;55.998;37.212;2023-02-19T12:59:36;-11298.94;;;-145.39;56.65
37078;BME280;22989;55.998;37.212;2023-02-19T13:02:16;-11298.94;;;-145.39;56.27
37078;BME280;22989;55.998;37.212;2023-02-19T13:04:53;-11298.94;;;-145.39;56.58
37078;BME280;22989;55.998;37.212;2023-02-19T13:07:27;-11298.94;;;-145.39;56.77
37078;BME280;22989;55.998;37.212;2023-02-19T13:09:59;-11298.94;;;-145.39;57.01
37078;BME280;22989;55.998;37.212;2023-02-19T13:12:33;-11298.94;;;-145.39;56.82
37078;BME280;22989;55.998;37.212;2023-02-19T13:15:02;-11298.94;;;-145.39;57.27
37078;BME280;22989;55.998;37.212;2023-02-19T13:17:35;-11298.94;;;-145.39;57.34
37078;BME280;22989;55.998;37.212;2023-02-19T13:23:00;-11298.94;;;-145.39;57.58
37078;BME280;22989;55.998;37.212;2023-02-19T13:36:45;-11298.94;;;-145.39;57.83
37078;BME280;22989;55.998;37.212;2023-02-19T13:39:14;-11298.94;;;-145.39;57.91
37078;BME280;22989;55.998;37.212;2023-02-19T13:41:42;-11298.94;;;-145.39;58.00
37078;BME280;22989;55.998;37.212;2023-02-19T13:44:23;-11298.94;;;-145.39;58.40
37078;BME280;22989;55.998;37.212;2023-02-19T13:46:50;-11298.94;;;-145.39;58.46
37078;BME280;22989;55.998;37.212;2023-02-19T13:54:40;-11298.94;;;-145.39;58.74
37078;BME280;22989;55.998;37.212;2023-02-19T13:57:27;-11298.94;;;-145.39;58.69
37078;BME280;22989;55.998;37.212;2023-02-19T13:59:57;-11298.94;;;-145.39;58.57
37078;BME280;22989;55.998;37.212;2023-02-19T14:02:32;-11298.94;;;-145.39;58.75
37078;BME280;22989;55.998;37.212;2023-02-19T14:05:05;-11298.94;;;-145.39;58.73